KALS/ALS METAR and TAF weather

Enter ICAO airport designator
Station Type Date Time Source
KALS METAR 2020/09/22 22:52 UTC NOAA

KALS 222252Z AUTO 31011KT 10SM CLR 20/01 A3030 RMK AO2 PK WND 31030/2205 SLP194 T02000006


Station Type Date Time Source
KALS Decoded METAR 2020/09/22 22:52 UTC NOAA

SAN LUIS VALLEY REGIONAL, CO, United States (KALS) 37-26N 105-52W 2299M
Sep 22, 2020 - 06:52 PM EDT / 2020.09.22 2252 UTC
Wind: from the NW (310 degrees) at 13 MPH (11 KT):0
Visibility: 10 mile(s):0
Sky conditions: clear
Temperature: 68.0 F (20.0 C)
Dew Point: 33.1 F (0.6 C)
Relative Humidity: 27%
Pressure (altimeter): 30.3 in. Hg (1026 hPa)
ob: KALS 222252Z AUTO 31011KT 10SM CLR 20/01 A3030 RMK AO2 PK WND 31030/2205 SLP194 T02000006
cycle: 23

Station Type Date Time Source
KALS TAF 2020/09/22 22:30 UTC NOAA

TAF
AMD KALS 222229Z 2222/2318 29018G28KT P6SM VCSH SCT120 BKN200
FM230000 27014G24KT P6SM VCSH SCT100 BKN150
FM230200 09006KT P6SM SCT150
FM230700 VRB05KT P6SM FEW200

Example: see airport list